sensor_id;sensor_type;location;lat;lon;timestamp;P1;durP1;ratioP1;P2;durP2;ratioP2
27113;SDS011;14648;49.730;8.614;2022-10-23T00:01:33;8.90;;;2.67;;
27113;SDS011;14648;49.730;8.614;2022-10-23T00:04:04;4.63;;;2.33;;
27113;SDS011;14648;49.730;8.614;2022-10-23T00:06:39;13.97;;;3.07;;
27113;SDS011;14648;49.730;8.614;2022-10-23T00:09:06;7.20;;;3.00;;
27113;SDS011;14648;49.730;8.614;2022-10-23T00:11:34;7.27;;;3.67;;
27113;SDS011;14648;49.730;8.614;2022-10-23T00:14:00;9.43;;;3.80;;
27113;SDS011;14648;49.730;8.614;2022-10-23T00:16:29;9.70;;;4.27;;
27113;SDS011;14648;49.730;8.614;2022-10-23T00:18:55;12.20;;;4.07;;
27113;SDS011;14648;49.730;8.614;2022-10-23T00:21:21;6.83;;;3.77;;
27113;SDS011;14648;49.730;8.614;2022-10-23T00:23:48;9.73;;;3.70;;
27113;SDS011;14648;49.730;8.614;2022-10-23T00:26:14;15.50;;;4.53;;
27113;SDS011;14648;49.730;8.614;2022-10-23T00:28:44;13.77;;;4.13;;
27113;SDS011;14648;49.730;8.614;2022-10-23T00:31:12;11.33;;;3.90;;
27113;SDS011;14648;49.730;8.614;2022-10-23T00:33:38;8.80;;;3.63;;
27113;SDS011;14648;49.730;8.614;2022-10-23T00:36:06;13.30;;;4.07;;
27113;SDS011;14648;49.730;8.614;2022-10-23T00:38:35;10.70;;;2.87;;
27113;SDS011;14648;49.730;8.614;2022-10-23T00:41:01;4.70;;;2.60;;
27113;SDS011;14648;49.730;8.614;2022-10-23T00:43:29;11.40;;;2.83;;
27113;SDS011;14648;49.730;8.614;2022-10-23T00:45:57;5.10;;;2.20;;
27113;SDS011;14648;49.730;8.614;2022-10-23T00:48:24;3.10;;;2.20;;
27113;SDS011;14648;49.730;8.614;2022-10-23T00:50:51;8.80;;;1.80;;
27113;SDS011;14648;49.730;8.614;2022-10-23T00:53:18;4.20;;;1.57;;
27113;SDS011;14648;49.730;8.614;2022-10-23T00:55:46;6.37;;;1.87;;
27113;SDS011;14648;49.730;8.614;2022-10-23T00:58:16;8.00;;;2.00;;
27113;SDS011;14648;49.730;8.614;2022-10-23T01:00:46;5.03;;;2.70;;
27113;SDS011;14648;49.730;8.614;2022-10-23T01:03:22;7.23;;;3.13;;
27113;SDS011;14648;49.730;8.614;2022-10-23T01:05:58;6.83;;;2.90;;
27113;SDS011;14648;49.730;8.614;2022-10-23T01:09:14;3.77;;;2.40;;
27113;SDS011;14648;49.730;8.614;2022-10-23T01:12:14;4.77;;;2.30;;
27113;SDS011;14648;49.730;8.614;2022-10-23T01:17:40;4.73;;;2.10;;
27113;SDS011;14648;49.730;8.614;2022-10-23T01:20:24;10.40;;;4.30;;
27113;SDS011;14648;49.730;8.614;2022-10-23T01:26:17;8.53;;;4.70;;
27113;SDS011;14648;49.730;8.614;2022-10-23T01:29:16;8.03;;;4.60;;
27113;SDS011;14648;49.730;8.614;2022-10-23T01:32:08;10.57;;;4.73;;
27113;SDS011;14648;49.730;8.614;2022-10-23T01:34:49;12.53;;;4.73;;
27113;SDS011;14648;49.730;8.614;2022-10-23T01:37:50;11.00;;;4.63;;
27113;SDS011;14648;49.730;8.614;2022-10-23T01:40:28;5.73;;;4.30;;
27113;SDS011;14648;49.730;8.614;2022-10-23T01:43:17;16.20;;;4.30;;
27113;SDS011;14648;49.730;8.614;2022-10-23T01:45:50;9.87;;;5.50;;
27113;SDS011;14648;49.730;8.614;2022-10-23T01:48:24;17.47;;;5.30;;
27113;SDS011;14648;49.730;8.614;2022-10-23T01:50:54;10.10;;;5.67;;
27113;SDS011;14648;49.730;8.614;2022-10-23T01:53:23;7.90;;;4.80;;
27113;SDS011;14648;49.730;8.614;2022-10-23T01:55:54;15.80;;;5.67;;
27113;SDS011;14648;49.730;8.614;2022-10-23T01:58:22;12.73;;;5.20;;
27113;SDS011;14648;49.730;8.614;2022-10-23T02:00:50;7.83;;;4.40;;
27113;SDS011;14648;49.730;8.614;2022-10-23T02:03:19;16.33;;;5.30;;
27113;SDS011;14648;49.730;8.614;2022-10-23T02:05:46;7.40;;;4.30;;
27113;SDS011;14648;49.730;8.614;2022-10-23T02:08:12;6.83;;;4.83;;
27113;SDS011;14648;49.730;8.614;2022-10-23T02:10:56;5.60;;;3.43;;
27113;SDS011;14648;49.730;8.614;2022-10-23T02:13:38;6.67;;;3.77;;
27113;SDS011;14648;49.730;8.614;2022-10-23T02:16:18;6.60;;;3.50;;
27113;SDS011;14648;49.730;8.614;2022-10-23T02:21:53;3.80;;;2.73;;
27113;SDS011;14648;49.730;8.614;2022-10-23T02:27:39;4.00;;;2.50;;
27113;SDS011;14648;49.730;8.614;2022-10-23T02:30:10;7.20;;;2.57;;
27113;SDS011;14648;49.730;8.614;2022-10-23T02:32:43;5.33;;;2.10;;
27113;SDS011;14648;49.730;8.614;2022-10-23T02:35:13;5.37;;;2.57;;
27113;SDS011;14648;49.730;8.614;2022-10-23T02:37:40;2.63;;;2.23;;
27113;SDS011;14648;49.730;8.614;2022-10-23T02:40:06;2.80;;;2.60;;
27113;SDS011;14648;49.730;8.614;2022-10-23T02:42:57;5.63;;;3.20;;
27113;SDS011;14648;49.730;8.614;2022-10-23T02:45:29;8.97;;;3.83;;
27113;SDS011;14648;49.730;8.614;2022-10-23T02:48:11;7.43;;;3.73;;
27113;SDS011;14648;49.730;8.614;2022-10-23T02:53:32;10.23;;;4.70;;
27113;SDS011;14648;49.730;8.614;2022-10-23T02:56:20;10.63;;;4.50;;
27113;SDS011;14648;49.730;8.614;2022-10-23T02:59:05;11.70;;;4.90;;
27113;SDS011;14648;49.730;8.614;2022-10-23T03:01:54;12.53;;;4.40;;
27113;SDS011;14648;49.730;8.614;2022-10-23T03:04:40;9.20;;;4.03;;
27113;SDS011;14648;49.730;8.614;2022-10-23T03:07:14;9.43;;;3.53;;
27113;SDS011;14648;49.730;8.614;2022-10-23T03:09:42;5.90;;;3.30;;
27113;SDS011;14648;49.730;8.614;2022-10-23T03:12:08;5.23;;;3.20;;
27113;SDS011;14648;49.730;8.614;2022-10-23T03:14:33;5.03;;;3.20;;
27113;SDS011;14648;49.730;8.614;2022-10-23T03:16:59;5.97;;;3.50;;
27113;SDS011;14648;49.730;8.614;2022-10-23T03:19:25;11.40;;;2.90;;
27113;SDS011;14648;49.730;8.614;2022-10-23T03:21:50;9.03;;;2.40;;
27113;SDS011;14648;49.730;8.614;2022-10-23T03:24:16;9.40;;;3.10;;
27113;SDS011;14648;49.730;8.614;2022-10-23T03:26:42;8.30;;;2.70;;
27113;SDS011;14648;49.730;8.614;2022-10-23T03:29:07;7.13;;;2.63;;
27113;SDS011;14648;49.730;8.614;2022-10-23T03:31:33;2.70;;;2.50;;
27113;SDS011;14648;49.730;8.614;2022-10-23T03:33:59;4.73;;;2.23;;
27113;SDS011;14648;49.730;8.614;2022-10-23T03:36:24;2.90;;;2.70;;
27113;SDS011;14648;49.730;8.614;2022-10-23T03:38:50;9.57;;;3.23;;
27113;SDS011;14648;49.730;8.614;2022-10-23T03:41:16;3.73;;;2.73;;
27113;SDS011;14648;49.730;8.614;2022-10-23T03:43:41;5.57;;;2.87;;
27113;SDS011;14648;49.730;8.614;2022-10-23T03:46:07;5.20;;;3.10;;
27113;SDS011;14648;49.730;8.614;2022-10-23T03:48:36;6.30;;;3.53;;
27113;SDS011;14648;49.730;8.614;2022-10-23T03:51:06;5.80;;;2.90;;
27113;SDS011;14648;49.730;8.614;2022-10-23T03:53:32;7.70;;;2.90;;
27113;SDS011;14648;49.730;8.614;2022-10-23T03:55:58;9.50;;;3.00;;
27113;SDS011;14648;49.730;8.614;2022-10-23T03:58:24;6.27;;;3.00;;
27113;SDS011;14648;49.730;8.614;2022-10-23T04:00:50;10.43;;;2.60;;
27113;SDS011;14648;49.730;8.614;2022-10-23T04:03:16;6.57;;;2.60;;
27113;SDS011;14648;49.730;8.614;2022-10-23T04:05:41;11.73;;;3.33;;
27113;SDS011;14648;49.730;8.614;2022-10-23T04:08:07;6.10;;;2.53;;
27113;SDS011;14648;49.730;8.614;2022-10-23T04:10:34;3.60;;;3.00;;
27113;SDS011;14648;49.730;8.614;2022-10-23T04:12:59;9.27;;;3.07;;
27113;SDS011;14648;49.730;8.614;2022-10-23T04:15:26;6.93;;;3.23;;
27113;SDS011;14648;49.730;8.614;2022-10-23T04:17:52;3.30;;;3.00;;
27113;SDS011;14648;49.730;8.614;2022-10-23T04:20:18;4.67;;;3.07;;
27113;SDS011;14648;49.730;8.614;2022-10-23T04:22:43;4.77;;;2.70;;
27113;SDS011;14648;49.730;8.614;2022-10-23T04:25:09;7.50;;;2.93;;
27113;SDS011;14648;49.730;8.614;2022-10-23T04:27:35;5.47;;;2.50;;
27113;SDS011;14648;49.730;8.614;2022-10-23T04:30:01;3.27;;;2.30;;
27113;SDS011;14648;49.730;8.614;2022-10-23T04:32:27;4.70;;;2.43;;
27113;SDS011;14648;49.730;8.614;2022-10-23T04:34:53;8.33;;;3.30;;
27113;SDS011;14648;49.730;8.614;2022-10-23T04:37:19;2.67;;;2.10;;
27113;SDS011;14648;49.730;8.614;2022-10-23T04:39:44;7.23;;;2.77;;
27113;SDS011;14648;49.730;8.614;2022-10-23T04:42:10;4.07;;;2.50;;
27113;SDS011;14648;49.730;8.614;2022-10-23T04:44:36;4.37;;;2.50;;
27113;SDS011;14648;49.730;8.614;2022-10-23T04:47:02;3.17;;;2.80;;
27113;SDS011;14648;49.730;8.614;2022-10-23T04:49:27;6.10;;;2.40;;
27113;SDS011;14648;49.730;8.614;2022-10-23T04:51:53;6.53;;;3.10;;
27113;SDS011;14648;49.730;8.614;2022-10-23T04:54:18;6.00;;;3.37;;
27113;SDS011;14648;49.730;8.614;2022-10-23T04:56:45;3.10;;;2.20;;
27113;SDS011;14648;49.730;8.614;2022-10-23T04:59:11;3.57;;;2.47;;
27113;SDS011;14648;49.730;8.614;2022-10-23T05:01:36;11.53;;;2.53;;
27113;SDS011;14648;49.730;8.614;2022-10-23T05:04:02;4.80;;;2.33;;
27113;SDS011;14648;49.730;8.614;2022-10-23T05:06:28;6.00;;;3.00;;
27113;SDS011;14648;49.730;8.614;2022-10-23T05:08:54;3.63;;;2.60;;
27113;SDS011;14648;49.730;8.614;2022-10-23T05:11:20;2.13;;;1.93;;
27113;SDS011;14648;49.730;8.614;2022-10-23T05:13:46;4.80;;;2.30;;
27113;SDS011;14648;49.730;8.614;2022-10-23T05:16:12;11.23;;;2.90;;
27113;SDS011;14648;49.730;8.614;2022-10-23T05:19:14;5.40;;;2.50;;
27113;SDS011;14648;49.730;8.614;2022-10-23T05:21:45;4.13;;;2.27;;
27113;SDS011;14648;49.730;8.614;2022-10-23T05:24:13;3.90;;;2.20;;
27113;SDS011;14648;49.730;8.614;2022-10-23T05:26:39;6.67;;;2.80;;
27113;SDS011;14648;49.730;8.614;2022-10-23T05:29:04;3.83;;;2.23;;
27113;SDS011;14648;49.730;8.614;2022-10-23T05:31:30;4.10;;;2.10;;
27113;SDS011;14648;49.730;8.614;2022-10-23T05:33:58;6.40;;;2.00;;
27113;SDS011;14648;49.730;8.614;2022-10-23T05:36:24;6.90;;;2.50;;
27113;SDS011;14648;49.730;8.614;2022-10-23T05:38:51;11.73;;;2.60;;
27113;SDS011;14648;49.730;8.614;2022-10-23T05:41:17;11.70;;;2.67;;
27113;SDS011;14648;49.730;8.614;2022-10-23T05:43:43;3.63;;;2.77;;
27113;SDS011;14648;49.730;8.614;2022-10-23T05:46:10;9.43;;;3.30;;
27113;SDS011;14648;49.730;8.614;2022-10-23T05:48:36;5.47;;;3.20;;
27113;SDS011;14648;49.730;8.614;2022-10-23T05:51:06;4.97;;;3.67;;
27113;SDS011;14648;49.730;8.614;2022-10-23T05:53:33;9.33;;;4.80;;
27113;SDS011;14648;49.730;8.614;2022-10-23T05:56:03;4.17;;;3.67;;
27113;SDS011;14648;49.730;8.614;2022-10-23T05:58:32;5.17;;;3.57;;
27113;SDS011;14648;49.730;8.614;2022-10-23T06:00:58;5.83;;;3.57;;
27113;SDS011;14648;49.730;8.614;2022-10-23T06:03:24;4.80;;;2.70;;
27113;SDS011;14648;49.730;8.614;2022-10-23T06:05:50;7.83;;;3.10;;
27113;SDS011;14648;49.730;8.614;2022-10-23T06:08:18;11.80;;;3.20;;
27113;SDS011;14648;49.730;8.614;2022-10-23T06:10:44;9.83;;;3.70;;
27113;SDS011;14648;49.730;8.614;2022-10-23T06:13:09;6.30;;;3.73;;
27113;SDS011;14648;49.730;8.614;2022-10-23T06:15:35;8.07;;;3.50;;
27113;SDS011;14648;49.730;8.614;2022-10-23T06:18:03;9.77;;;4.07;;
27113;SDS011;14648;49.730;8.614;2022-10-23T06:20:29;9.00;;;3.57;;
27113;SDS011;14648;49.730;8.614;2022-10-23T06:22:55;3.70;;;3.10;;
27113;SDS011;14648;49.730;8.614;2022-10-23T06:25:21;7.77;;;3.67;;
27113;SDS011;14648;49.730;8.614;2022-10-23T06:27:47;13.70;;;3.43;;
27113;SDS011;14648;49.730;8.614;2022-10-23T06:30:14;6.03;;;3.33;;
27113;SDS011;14648;49.730;8.614;2022-10-23T06:32:40;4.13;;;3.17;;
27113;SDS011;14648;49.730;8.614;2022-10-23T06:35:06;3.83;;;2.80;;
27113;SDS011;14648;49.730;8.614;2022-10-23T06:37:33;8.83;;;3.13;;
27113;SDS011;14648;49.730;8.614;2022-10-23T06:39:58;6.20;;;3.00;;
27113;SDS011;14648;49.730;8.614;2022-10-23T06:42:24;6.47;;;2.93;;
27113;SDS011;14648;49.730;8.614;2022-10-23T06:44:50;3.50;;;3.20;;
27113;SDS011;14648;49.730;8.614;2022-10-23T06:47:15;5.53;;;3.43;;
27113;SDS011;14648;49.730;8.614;2022-10-23T06:49:41;4.37;;;3.33;;
27113;SDS011;14648;49.730;8.614;2022-10-23T06:52:07;5.00;;;4.00;;
27113;SDS011;14648;49.730;8.614;2022-10-23T06:54:33;6.40;;;4.30;;
27113;SDS011;14648;49.730;8.614;2022-10-23T06:56:58;4.13;;;3.73;;
27113;SDS011;14648;49.730;8.614;2022-10-23T06:59:24;10.30;;;4.80;;
27113;SDS011;14648;49.730;8.614;2022-10-23T07:01:50;5.90;;;4.53;;
27113;SDS011;14648;49.730;8.614;2022-10-23T07:04:15;6.43;;;4.50;;
27113;SDS011;14648;49.730;8.614;2022-10-23T07:06:41;11.33;;;4.27;;
27113;SDS011;14648;49.730;8.614;2022-10-23T07:09:07;5.83;;;4.27;;
27113;SDS011;14648;49.730;8.614;2022-10-23T07:11:33;6.43;;;4.17;;
27113;SDS011;14648;49.730;8.614;2022-10-23T07:13:59;6.30;;;4.97;;
27113;SDS011;14648;49.730;8.614;2022-10-23T07:16:25;6.47;;;4.77;;
27113;SDS011;14648;49.730;8.614;2022-10-23T07:18:55;8.20;;;4.60;;
27113;SDS011;14648;49.730;8.614;2022-10-23T07:21:30;11.30;;;4.20;;
27113;SDS011;14648;49.730;8.614;2022-10-23T07:23:59;5.70;;;4.77;;
27113;SDS011;14648;49.730;8.614;2022-10-23T07:26:25;7.00;;;4.60;;
27113;SDS011;14648;49.730;8.614;2022-10-23T07:28:52;13.27;;;5.73;;
27113;SDS011;14648;49.730;8.614;2022-10-23T07:31:21;10.57;;;6.27;;
27113;SDS011;14648;49.730;8.614;2022-10-23T07:33:50;12.50;;;6.43;;
27113;SDS011;14648;49.730;8.614;2022-10-23T07:36:16;7.97;;;5.80;;
27113;SDS011;14648;49.730;8.614;2022-10-23T07:38:43;7.37;;;5.07;;
27113;SDS011;14648;49.730;8.614;2022-10-23T07:41:09;6.67;;;5.30;;
27113;SDS011;14648;49.730;8.614;2022-10-23T07:43:36;9.60;;;7.63;;
27113;SDS011;14648;49.730;8.614;2022-10-23T07:46:02;6.43;;;5.33;;
27113;SDS011;14648;49.730;8.614;2022-10-23T07:48:28;12.40;;;7.43;;
27113;SDS011;14648;49.730;8.614;2022-10-23T07:50:58;22.00;;;11.57;;
27113;SDS011;14648;49.730;8.614;2022-10-23T07:53:25;13.13;;;7.10;;
27113;SDS011;14648;49.730;8.614;2022-10-23T07:55:56;16.60;;;9.00;;
27113;SDS011;14648;49.730;8.614;2022-10-23T07:58:28;11.13;;;7.57;;
27113;SDS011;14648;49.730;8.614;2022-10-23T08:00:56;9.70;;;7.17;;
27113;SDS011;14648;49.730;8.614;2022-10-23T08:03:28;13.67;;;7.80;;
27113;SDS011;14648;49.730;8.614;2022-10-23T08:05:57;12.47;;;7.00;;
27113;SDS011;14648;49.730;8.614;2022-10-23T08:08:24;10.53;;;5.70;;
27113;SDS011;14648;49.730;8.614;2022-10-23T08:10:52;6.60;;;5.00;;
27113;SDS011;14648;49.730;8.614;2022-10-23T08:13:19;7.07;;;4.23;;
27113;SDS011;14648;49.730;8.614;2022-10-23T08:15:46;6.73;;;4.80;;
27113;SDS011;14648;49.730;8.614;2022-10-23T08:18:14;3.87;;;3.50;;
27113;SDS011;14648;49.730;8.614;2022-10-23T08:20:44;10.33;;;4.80;;
27113;SDS011;14648;49.730;8.614;2022-10-23T08:23:13;5.30;;;4.20;;
27113;SDS011;14648;49.730;8.614;2022-10-23T08:25:42;9.30;;;5.70;;
27113;SDS011;14648;49.730;8.614;2022-10-23T08:28:08;7.93;;;4.33;;
27113;SDS011;14648;49.730;8.614;2022-10-23T08:30:35;8.93;;;4.73;;
27113;SDS011;14648;49.730;8.614;2022-10-23T08:33:05;10.50;;;4.23;;
27113;SDS011;14648;49.730;8.614;2022-10-23T08:35:35;5.17;;;4.50;;
27113;SDS011;14648;49.730;8.614;2022-10-23T08:38:02;9.67;;;4.00;;
27113;SDS011;14648;49.730;8.614;2022-10-23T08:40:29;10.17;;;4.20;;
27113;SDS011;14648;49.730;8.614;2022-10-23T08:42:57;14.30;;;4.40;;
27113;SDS011;14648;49.730;8.614;2022-10-23T08:48:22;6.20;;;3.23;;
27113;SDS011;14648;49.730;8.614;2022-10-23T08:50:55;7.13;;;3.60;;
27113;SDS011;14648;49.730;8.614;2022-10-23T08:56:16;6.20;;;4.50;;
27113;SDS011;14648;49.730;8.614;2022-10-23T08:58:58;9.33;;;3.97;;
27113;SDS011;14648;49.730;8.614;2022-10-23T09:01:44;4.37;;;3.77;;
27113;SDS011;14648;49.730;8.614;2022-10-23T09:04:14;7.30;;;4.50;;
27113;SDS011;14648;49.730;8.614;2022-10-23T09:13:35;6.87;;;4.23;;
27113;SDS011;14648;49.730;8.614;2022-10-23T09:16:29;4.40;;;4.00;;
27113;SDS011;14648;49.730;8.614;2022-10-23T09:19:21;7.77;;;3.90;;
27113;SDS011;14648;49.730;8.614;2022-10-23T09:21:52;7.83;;;4.40;;
27113;SDS011;14648;49.730;8.614;2022-10-23T09:24:20;12.70;;;4.73;;
27113;SDS011;14648;49.730;8.614;2022-10-23T09:26:49;5.50;;;4.47;;
27113;SDS011;14648;49.730;8.614;2022-10-23T09:29:28;10.43;;;5.53;;
27113;SDS011;14648;49.730;8.614;2022-10-23T09:32:03;8.80;;;4.10;;
27113;SDS011;14648;49.730;8.614;2022-10-23T09:34:32;5.90;;;3.47;;
27113;SDS011;14648;49.730;8.614;2022-10-23T09:37:00;11.30;;;4.03;;
27113;SDS011;14648;49.730;8.614;2022-10-23T09:39:39;4.37;;;3.97;;
27113;SDS011;14648;49.730;8.614;2022-10-23T09:42:23;4.87;;;3.83;;
27113;SDS011;14648;49.730;8.614;2022-10-23T09:44:51;9.93;;;6.50;;
27113;SDS011;14648;49.730;8.614;2022-10-23T09:47:19;8.20;;;6.20;;
27113;SDS011;14648;49.730;8.614;2022-10-23T09:49:52;8.90;;;6.77;;
27113;SDS011;14648;49.730;8.614;2022-10-23T09:52:23;10.50;;;6.97;;
27113;SDS011;14648;49.730;8.614;2022-10-23T09:55:00;12.40;;;7.30;;
27113;SDS011;14648;49.730;8.614;2022-10-23T09:57:43;8.00;;;6.23;;
27113;SDS011;14648;49.730;8.614;2022-10-23T10:02:38;18.13;;;7.23;;
27113;SDS011;14648;49.730;8.614;2022-10-23T10:05:27;9.23;;;6.50;;
27113;SDS011;14648;49.730;8.614;2022-10-23T10:08:14;10.60;;;5.80;;
27113;SDS011;14648;49.730;8.614;2022-10-23T10:14:45;7.80;;;6.30;;
27113;SDS011;14648;49.730;8.614;2022-10-23T10:22:49;10.47;;;7.17;;
27113;SDS011;14648;49.730;8.614;2022-10-23T10:31:14;16.33;;;6.37;;
27113;SDS011;14648;49.730;8.614;2022-10-23T10:40:29;9.70;;;7.17;;
27113;SDS011;14648;49.730;8.614;2022-10-23T10:51:39;14.57;;;7.00;;
27113;SDS011;14648;49.730;8.614;2022-10-23T10:57:31;9.90;;;7.17;;
27113;SDS011;14648;49.730;8.614;2022-10-23T11:00:03;8.73;;;5.87;;
27113;SDS011;14648;49.730;8.614;2022-10-23T11:02:52;8.00;;;6.10;;
27113;SDS011;14648;49.730;8.614;2022-10-23T11:05:33;10.83;;;6.90;;
27113;SDS011;14648;49.730;8.614;2022-10-23T11:08:14;9.77;;;6.87;;
27113;SDS011;14648;49.730;8.614;2022-10-23T11:10:52;12.77;;;6.40;;
27113;SDS011;14648;49.730;8.614;2022-10-23T11:13:34;19.20;;;6.27;;
27113;SDS011;14648;49.730;8.614;2022-10-23T11:16:15;7.90;;;6.10;;
27113;SDS011;14648;49.730;8.614;2022-10-23T11:18:51;10.63;;;6.40;;
27113;SDS011;14648;49.730;8.614;2022-10-23T11:21:55;11.00;;;6.80;;
27113;SDS011;14648;49.730;8.614;2022-10-23T11:24:55;7.13;;;5.50;;
27113;SDS011;14648;49.730;8.614;2022-10-23T11:41:57;9.30;;;6.10;;
27113;SDS011;14648;49.730;8.614;2022-10-23T11:44:44;17.90;;;6.60;;
27113;SDS011;14648;49.730;8.614;2022-10-23T11:52:34;9.83;;;5.80;;
27113;SDS011;14648;49.730;8.614;2022-10-23T11:55:25;12.63;;;5.80;;
27113;SDS011;14648;49.730;8.614;2022-10-23T11:58:07;9.80;;;5.83;;
27113;SDS011;14648;49.730;8.614;2022-10-23T12:00:51;7.13;;;6.03;;
27113;SDS011;14648;49.730;8.614;2022-10-23T12:03:54;14.70;;;6.83;;
27113;SDS011;14648;49.730;8.614;2022-10-23T12:09:25;7.90;;;5.37;;
27113;SDS011;14648;49.730;8.614;2022-10-23T12:14:37;5.87;;;4.70;;
27113;SDS011;14648;49.730;8.614;2022-10-23T12:19:52;11.37;;;4.80;;
27113;SDS011;14648;49.730;8.614;2022-10-23T12:22:31;6.67;;;4.50;;
27113;SDS011;14648;49.730;8.614;2022-10-23T12:25:12;7.03;;;4.40;;
27113;SDS011;14648;49.730;8.614;2022-10-23T12:30:20;7.60;;;4.73;;
27113;SDS011;14648;49.730;8.614;2022-10-23T12:32:56;9.53;;;3.97;;
27113;SDS011;14648;49.730;8.614;2022-10-23T12:38:49;4.57;;;3.83;;
27113;SDS011;14648;49.730;8.614;2022-10-23T12:41:20;6.27;;;4.47;;
27113;SDS011;14648;49.730;8.614;2022-10-23T12:43:59;8.10;;;4.80;;
27113;SDS011;14648;49.730;8.614;2022-10-23T12:49:13;3.23;;;3.00;;
27113;SDS011;14648;49.730;8.614;2022-10-23T12:51:42;5.10;;;3.50;;
27113;SDS011;14648;49.730;8.614;2022-10-23T12:54:18;4.50;;;3.30;;
27113;SDS011;14648;49.730;8.614;2022-10-23T12:56:45;5.47;;;4.27;;
27113;SDS011;14648;49.730;8.614;2022-10-23T12:59:19;4.07;;;3.17;;
27113;SDS011;14648;49.730;8.614;2022-10-23T13:01:52;7.93;;;3.57;;
27113;SDS011;14648;49.730;8.614;2022-10-23T13:04:32;6.30;;;4.00;;
27113;SDS011;14648;49.730;8.614;2022-10-23T13:07:00;6.30;;;3.50;;
27113;SDS011;14648;49.730;8.614;2022-10-23T13:09:40;4.40;;;3.03;;
27113;SDS011;14648;49.730;8.614;2022-10-23T13:12:07;5.67;;;4.23;;
27113;SDS011;14648;49.730;8.614;2022-10-23T13:14:53;11.43;;;3.37;;
27113;SDS011;14648;49.730;8.614;2022-10-23T13:17:34;6.50;;;3.80;;
27113;SDS011;14648;49.730;8.614;2022-10-23T13:20:08;4.83;;;3.90;;
27113;SDS011;14648;49.730;8.614;2022-10-23T13:22:45;4.50;;;3.27;;
27113;SDS011;14648;49.730;8.614;2022-10-23T13:30:56;3.20;;;2.70;;
27113;SDS011;14648;49.730;8.614;2022-10-23T13:33:35;9.50;;;3.03;;
27113;SDS011;14648;49.730;8.614;2022-10-23T13:38:39;2.67;;;2.47;;
27113;SDS011;14648;49.730;8.614;2022-10-23T13:41:12;4.40;;;2.73;;
27113;SDS011;14648;49.730;8.614;2022-10-23T13:43:41;3.37;;;2.77;;
27113;SDS011;14648;49.730;8.614;2022-10-23T13:46:15;7.17;;;3.10;;
27113;SDS011;14648;49.730;8.614;2022-10-23T13:48:47;4.80;;;2.73;;
27113;SDS011;14648;49.730;8.614;2022-10-23T13:51:20;2.60;;;2.30;;
27113;SDS011;14648;49.730;8.614;2022-10-23T13:53:49;6.00;;;2.53;;
27113;SDS011;14648;49.730;8.614;2022-10-23T13:56:16;5.47;;;3.17;;
27113;SDS011;14648;49.730;8.614;2022-10-23T13:58:43;2.40;;;2.30;;
27113;SDS011;14648;49.730;8.614;2022-10-23T14:01:32;2.57;;;2.37;;
27113;SDS011;14648;49.730;8.614;2022-10-23T14:03:59;5.23;;;2.60;;
27113;SDS011;14648;49.730;8.614;2022-10-23T14:06:28;2.70;;;2.50;;
27113;SDS011;14648;49.730;8.614;2022-10-23T14:08:54;7.30;;;2.90;;
27113;SDS011;14648;49.730;8.614;2022-10-23T14:11:20;4.30;;;3.53;;
27113;SDS011;14648;49.730;8.614;2022-10-23T14:13:46;4.00;;;2.30;;
27113;SDS011;14648;49.730;8.614;2022-10-23T14:16:14;9.70;;;3.07;;
27113;SDS011;14648;49.730;8.614;2022-10-23T14:18:41;3.37;;;3.07;;
27113;SDS011;14648;49.730;8.614;2022-10-23T14:21:09;8.90;;;2.83;;
27113;SDS011;14648;49.730;8.614;2022-10-23T14:23:37;3.00;;;2.70;;
27113;SDS011;14648;49.730;8.614;2022-10-23T14:26:05;5.60;;;2.70;;
27113;SDS011;14648;49.730;8.614;2022-10-23T14:28:33;2.93;;;2.63;;
27113;SDS011;14648;49.730;8.614;2022-10-23T14:31:03;6.93;;;3.20;;
27113;SDS011;14648;49.730;8.614;2022-10-23T14:33:31;4.33;;;2.70;;
27113;SDS011;14648;49.730;8.614;2022-10-23T14:35:57;2.97;;;2.50;;
27113;SDS011;14648;49.730;8.614;2022-10-23T14:38:23;2.40;;;2.20;;
27113;SDS011;14648;49.730;8.614;2022-10-23T14:40:48;4.60;;;2.53;;
27113;SDS011;14648;49.730;8.614;2022-10-23T14:43:14;4.50;;;2.57;;
27113;SDS011;14648;49.730;8.614;2022-10-23T14:45:40;7.00;;;3.27;;
27113;SDS011;14648;49.730;8.614;2022-10-23T14:48:08;5.47;;;3.03;;
27113;SDS011;14648;49.730;8.614;2022-10-23T14:50:35;7.37;;;2.93;;
27113;SDS011;14648;49.730;8.614;2022-10-23T14:53:07;14.40;;;3.57;;
27113;SDS011;14648;49.730;8.614;2022-10-23T14:55:32;4.83;;;2.43;;
27113;SDS011;14648;49.730;8.614;2022-10-23T14:57:58;11.60;;;3.27;;
27113;SDS011;14648;49.730;8.614;2022-10-23T15:00:24;5.63;;;2.90;;
27113;SDS011;14648;49.730;8.614;2022-10-23T15:02:51;5.20;;;2.70;;
27113;SDS011;14648;49.730;8.614;2022-10-23T15:05:16;6.10;;;2.80;;
27113;SDS011;14648;49.730;8.614;2022-10-23T15:07:43;5.03;;;2.37;;
27113;SDS011;14648;49.730;8.614;2022-10-23T15:10:08;10.83;;;5.43;;
27113;SDS011;14648;49.730;8.614;2022-10-23T15:12:35;3.40;;;3.03;;
27113;SDS011;14648;49.730;8.614;2022-10-23T15:15:02;6.80;;;2.63;;
27113;SDS011;14648;49.730;8.614;2022-10-23T15:17:29;3.17;;;2.53;;
27113;SDS011;14648;49.730;8.614;2022-10-23T15:19:56;6.53;;;2.80;;
27113;SDS011;14648;49.730;8.614;2022-10-23T15:22:22;11.53;;;3.17;;
27113;SDS011;14648;49.730;8.614;2022-10-23T15:24:48;7.27;;;3.40;;
27113;SDS011;14648;49.730;8.614;2022-10-23T15:27:14;3.83;;;2.10;;
27113;SDS011;14648;49.730;8.614;2022-10-23T15:29:39;8.83;;;2.27;;
27113;SDS011;14648;49.730;8.614;2022-10-23T15:32:05;3.83;;;2.93;;
27113;SDS011;14648;49.730;8.614;2022-10-23T15:34:34;4.63;;;2.60;;
27113;SDS011;14648;49.730;8.614;2022-10-23T15:37:02;3.23;;;2.10;;
27113;SDS011;14648;49.730;8.614;2022-10-23T15:39:28;7.80;;;2.87;;
27113;SDS011;14648;49.730;8.614;2022-10-23T15:41:58;2.30;;;2.10;;
27113;SDS011;14648;49.730;8.614;2022-10-23T15:44:26;6.33;;;2.20;;
27113;SDS011;14648;49.730;8.614;2022-10-23T15:46:54;5.20;;;2.77;;
27113;SDS011;14648;49.730;8.614;2022-10-23T15:49:21;11.83;;;2.50;;
27113;SDS011;14648;49.730;8.614;2022-10-23T15:51:51;8.60;;;2.80;;
27113;SDS011;14648;49.730;8.614;2022-10-23T15:54:18;2.70;;;2.50;;
27113;SDS011;14648;49.730;8.614;2022-10-23T15:56:49;2.77;;;2.27;;
27113;SDS011;14648;49.730;8.614;2022-10-23T15:59:18;10.20;;;3.00;;
27113;SDS011;14648;49.730;8.614;2022-10-23T16:01:47;10.50;;;2.20;;
27113;SDS011;14648;49.730;8.614;2022-10-23T16:04:13;6.30;;;2.60;;
27113;SDS011;14648;49.730;8.614;2022-10-23T16:06:40;8.00;;;1.73;;
27113;SDS011;14648;49.730;8.614;2022-10-23T16:09:06;6.47;;;2.70;;
27113;SDS011;14648;49.730;8.614;2022-10-23T16:11:33;6.30;;;2.40;;
27113;SDS011;14648;49.730;8.614;2022-10-23T16:14:01;8.43;;;3.30;;
27113;SDS011;14648;49.730;8.614;2022-10-23T16:16:28;7.87;;;2.80;;
27113;SDS011;14648;49.730;8.614;2022-10-23T16:18:59;5.37;;;2.80;;
27113;SDS011;14648;49.730;8.614;2022-10-23T16:21:27;11.60;;;2.63;;
27113;SDS011;14648;49.730;8.614;2022-10-23T16:23:57;6.23;;;1.73;;
27113;SDS011;14648;49.730;8.614;2022-10-23T16:26:24;6.53;;;2.53;;
27113;SDS011;14648;49.730;8.614;2022-10-23T16:28:59;4.63;;;2.70;;
27113;SDS011;14648;49.730;8.614;2022-10-23T16:31:28;4.40;;;2.33;;
27113;SDS011;14648;49.730;8.614;2022-10-23T16:33:56;4.73;;;2.40;;
27113;SDS011;14648;49.730;8.614;2022-10-23T16:36:24;10.07;;;2.80;;
27113;SDS011;14648;49.730;8.614;2022-10-23T16:38:50;4.83;;;2.70;;
27113;SDS011;14648;49.730;8.614;2022-10-23T16:41:15;5.60;;;3.40;;
27113;SDS011;14648;49.730;8.614;2022-10-23T16:43:41;8.00;;;4.80;;
27113;SDS011;14648;49.730;8.614;2022-10-23T16:46:11;17.03;;;4.70;;
27113;SDS011;14648;49.730;8.614;2022-10-23T16:48:43;6.63;;;4.17;;
27113;SDS011;14648;49.730;8.614;2022-10-23T16:51:11;9.30;;;3.17;;
27113;SDS011;14648;49.730;8.614;2022-10-23T16:53:39;9.97;;;4.30;;
27113;SDS011;14648;49.730;8.614;2022-10-23T16:56:06;3.27;;;2.90;;